Time;durP1;ratioP1;P1;durP2;ratioP2;P2;SDS_P1;SDS_P2;PMS_P1;PMS_P2;Temp;Humidity;BMP_temperature;BMP_pressure;BME280_temperature;BME280_humidity;BME280_pressure;Samples;Min_cycle;Max_cycle;Signal;HPM_P1;HPM_P2
2022/10/23 00:00:39;;;;;;;7.50;3.80;;;13.50;96.80;;;;;;5118716;28;20430;-72
2022/10/23 00:03:06;;;;;;;7.63;4.05;;;13.50;96.90;;;;;;5121769;28;20664;-71
2022/10/23 00:05:34;;;;;;;6.78;3.95;;;13.50;97.00;;;;;;5115854;28;20748;-73
2022/10/23 00:08:01;;;;;;;8.17;3.80;;;13.50;97.20;;;;;;5105747;28;20424;-74
2022/10/23 00:10:28;;;;;;;6.23;3.93;;;13.40;97.10;;;;;;5109173;28;20428;-74
2022/10/23 00:12:55;;;;;;;7.10;4.00;;;13.40;97.20;;;;;;5097280;28;20421;-74
2022/10/23 00:15:23;;;;;;;7.22;3.80;;;13.40;97.30;;;;;;5109771;28;20423;-73
2022/10/23 00:17:50;;;;;;;8.65;3.85;;;13.30;97.40;;;;;;5109083;27;20637;-72
2022/10/23 00:20:17;;;;;;;6.22;3.80;;;13.30;97.30;;;;;;5138656;22;20444;-64
2022/10/23 00:22:45;;;;;;;8.15;3.95;;;13.30;97.40;;;;;;5107217;28;20886;-66
2022/10/23 00:25:15;;;;;;;11.00;4.03;;;13.30;97.60;;;;;;5106656;28;20420;-66
2022/10/23 00:27:41;;;;;;;4.32;3.80;;;13.30;97.60;;;;;;5100197;28;20434;-65
2022/10/23 00:30:09;;;;;;;5.90;3.40;;;13.30;97.70;;;;;;5105245;28;20421;-62
2022/10/23 00:32:36;;;;;;;4.80;3.30;;;13.20;97.60;;;;;;5085645;28;20430;-64
2022/10/23 00:35:03;;;;;;;7.00;3.95;;;13.30;97.80;;;;;;5089047;28;20442;-64
2022/10/23 00:37:30;;;;;;;6.88;3.60;;;13.20;97.80;;;;;;5088051;28;20425;-65
2022/10/23 00:39:58;;;;;;;7.65;4.00;;;13.20;97.90;;;;;;5087083;28;20440;-64
2022/10/23 00:42:25;;;;;;;11.13;3.72;;;13.20;98.00;;;;;;5085794;28;20413;-67
2022/10/23 00:45:13;;;;;;;7.53;3.60;;;13.20;98.10;;;;;;5078318;28;20398;-63
2022/10/23 00:47:40;;;;;;;7.53;3.90;;;13.20;98.10;;;;;;5086268;28;20453;-64
2022/10/23 00:50:08;;;;;;;5.00;3.75;;;13.20;97.80;;;;;;5087831;28;20417;-67
2022/10/23 00:52:40;;;;;;;4.40;3.60;;;13.20;97.70;;;;;;5088325;28;20433;-65
2022/10/23 00:55:09;;;;;;;8.20;4.10;;;13.20;97.50;;;;;;5087646;28;20437;-65
2022/10/23 00:57:36;;;;;;;6.47;3.95;;;13.20;97.40;;;;;;5084792;28;20425;-64
2022/10/23 01:00:03;;;;;;;6.15;3.95;;;13.20;97.40;;;;;;5082948;28;20429;-65
2022/10/23 01:02:30;;;;;;;6.10;4.00;;;13.20;97.50;;;;;;5085400;28;20417;-65
2022/10/23 01:04:57;;;;;;;6.93;4.00;;;13.20;97.60;;;;;;5082340;28;20871;-64
2022/10/23 01:07:29;;;;;;;6.70;4.60;;;13.20;97.60;;;;;;5081597;28;20437;-65
2022/10/23 01:10:05;;;;;;;8.25;4.47;;;13.20;97.80;;;;;;5083186;28;20440;-65
2022/10/23 01:12:38;;;;;;;7.97;4.70;;;13.20;97.90;;;;;;5081939;28;20433;-64
2022/10/23 01:15:13;;;;;;;9.48;4.47;;;13.20;97.90;;;;;;5085283;28;21031;-64
2022/10/23 01:17:45;;;;;;;6.35;4.20;;;13.20;98.10;;;;;;5081032;28;20427;-65
2022/10/23 01:20:29;;;;;;;7.60;4.60;;;13.10;98.10;;;;;;5077059;28;20421;-64
2022/10/23 01:23:29;;;;;;;5.63;4.03;;;13.10;98.30;;;;;;5085551;28;20456;-64
2022/10/23 01:26:08;;;;;;;5.43;4.00;;;13.10;98.20;;;;;;5075450;28;20519;-64
2022/10/23 01:28:43;;;;;;;6.63;4.20;;;13.20;98.30;;;;;;5084913;28;20421;-65
2022/10/23 01:31:17;;;;;;;7.32;4.80;;;13.10;98.40;;;;;;5082780;28;20419;-64
2022/10/23 01:33:48;;;;;;;6.67;4.47;;;13.10;98.40;;;;;;5080988;28;20434;-64
2022/10/23 01:36:18;;;;;;;6.25;4.30;;;13.10;98.30;;;;;;5081160;28;20461;-64
2022/10/23 01:38:52;;;;;;;7.75;4.20;;;13.10;98.20;;;;;;5081472;28;20431;-65
2022/10/23 01:41:24;;;;;;;8.00;4.00;;;13.00;98.10;;;;;;5077263;28;20429;-65
2022/10/23 01:43:59;;;;;;;5.10;3.70;;;13.00;98.10;;;;;;5078533;28;20434;-66
2022/10/23 01:46:28;;;;;;;5.45;4.28;;;13.00;98.20;;;;;;5083827;28;20453;-64
2022/10/23 01:48:57;;;;;;;6.07;4.30;;;13.00;98.60;;;;;;5083099;28;20433;-65
2022/10/23 01:51:27;;;;;;;8.33;4.70;;;13.00;98.10;;;;;;5085693;28;20499;-65
2022/10/23 01:53:57;;;;;;;6.67;3.80;;;13.00;98.00;;;;;;5091317;28;20690;-65
2022/10/23 01:56:28;;;;;;;9.48;4.47;;;13.00;98.10;;;;;;5079844;28;21283;-65
2022/10/23 01:59:00;;;;;;;12.18;4.30;;;13.00;98.00;;;;;;5082311;28;20434;-65
2022/10/23 02:01:30;;;;;;;7.40;3.67;;;13.00;98.00;;;;;;5084310;28;20449;-62
2022/10/23 02:03:59;;;;;;;8.30;3.80;;;13.00;97.80;;;;;;5083439;28;20422;-65
2022/10/23 02:06:26;;;;;;;6.20;4.03;;;13.00;97.80;;;;;;5086564;28;20429;-64
2022/10/23 02:08:52;;;;;;;6.07;4.40;;;13.00;97.70;;;;;;5082716;28;20421;-63
2022/10/23 02:11:21;;;;;;;8.85;5.00;;;13.00;97.70;;;;;;5080049;28;20551;-65
2022/10/23 02:13:55;;;;;;;7.72;4.30;;;12.90;97.60;;;;;;5080624;28;20425;-64
2022/10/23 02:16:30;;;;;;;6.07;4.07;;;12.90;97.70;;;;;;5082875;28;22087;-65
2022/10/23 02:19:08;;;;;;;7.97;4.65;;;12.90;97.90;;;;;;5079056;28;20920;-64
2022/10/23 02:21:41;;;;;;;5.88;4.00;;;12.90;98.00;;;;;;5083726;28;20434;-65
2022/10/23 02:24:11;;;;;;;7.30;4.00;;;12.90;98.10;;;;;;5080478;28;20434;-66
2022/10/23 02:26:42;;;;;;;7.20;3.95;;;12.90;98.10;;;;;;5080545;28;20430;-65
2022/10/23 02:29:13;;;;;;;4.60;3.40;;;13.00;98.00;;;;;;5081189;28;21093;-65
2022/10/23 02:31:41;;;;;;;5.72;3.55;;;13.00;98.00;;;;;;5084992;28;20429;-65
2022/10/23 02:34:08;;;;;;;6.28;3.40;;;13.00;97.80;;;;;;5077241;28;20436;-65
2022/10/23 02:36:35;;;;;;;6.53;4.00;;;13.00;97.80;;;;;;5081299;28;20425;-65
2022/10/23 02:39:01;;;;;;;5.57;4.15;;;13.10;97.80;;;;;;5085516;28;20441;-65
2022/10/23 02:41:37;;;;;;;6.43;3.83;;;13.10;97.70;;;;;;5084505;28;20430;-65
2022/10/23 02:44:21;;;;;;;6.25;3.70;;;13.10;97.70;;;;;;5082977;28;20812;-65
2022/10/23 02:46:57;;;;;;;6.60;3.75;;;13.10;97.70;;;;;;5087327;28;20425;-65
2022/10/23 02:49:30;;;;;;;6.25;3.70;;;13.10;97.70;;;;;;5083606;28;20792;-64
2022/10/23 02:52:06;;;;;;;5.23;3.60;;;13.10;97.70;;;;;;5086315;28;20417;-64
2022/10/23 02:54:57;;;;;;;5.32;3.35;;;13.10;97.70;;;;;;5079767;28;20801;-65
2022/10/23 02:57:29;;;;;;;5.05;3.42;;;13.10;97.70;;;;;;5082491;28;20429;-63
2022/10/23 03:00:02;;;;;;;5.78;3.78;;;13.10;97.70;;;;;;5083292;28;20915;-64
2022/10/23 03:02:37;;;;;;;6.40;3.80;;;13.10;97.70;;;;;;5077214;28;20448;-65
2022/10/23 03:05:06;;;;;;;6.35;3.50;;;13.10;97.70;;;;;;5081217;28;20429;-62
2022/10/23 03:07:34;;;;;;;6.97;3.70;;;13.10;97.70;;;;;;5085655;28;21028;-65
2022/10/23 03:10:00;;;;;;;4.03;3.00;;;13.10;97.70;;;;;;5084635;28;20429;-65
2022/10/23 03:12:27;;;;;;;6.30;3.20;;;13.10;97.60;;;;;;5083645;28;20829;-65
2022/10/23 03:14:54;;;;;;;7.10;3.63;;;13.20;97.60;;;;;;5085544;28;20432;-65
2022/10/23 03:17:21;;;;;;;8.48;3.90;;;13.10;97.60;;;;;;5078070;28;20910;-65
2022/10/23 03:19:49;;;;;;;4.80;3.65;;;13.20;97.80;;;;;;5083564;28;20912;-65
2022/10/23 03:22:15;;;;;;;6.07;3.30;;;13.10;98.30;;;;;;5088435;28;20402;-64
2022/10/23 03:24:42;;;;;;;6.72;3.35;;;13.10;97.80;;;;;;5086571;28;21201;-64
2022/10/23 03:27:10;;;;;;;5.57;3.87;;;13.10;97.80;;;;;;5088892;28;20421;-65
2022/10/23 03:29:37;;;;;;;3.72;3.35;;;13.10;97.80;;;;;;5084949;28;20456;-64
2022/10/23 03:32:04;;;;;;;6.03;3.40;;;13.10;97.80;;;;;;5086859;28;20434;-65
2022/10/23 03:34:31;;;;;;;7.57;3.80;;;13.10;97.80;;;;;;5085217;28;20923;-65
2022/10/23 03:36:59;;;;;;;4.40;3.10;;;13.10;97.80;;;;;;5089088;28;21053;-65
2022/10/23 03:39:26;;;;;;;7.30;3.50;;;13.10;97.60;;;;;;5086926;28;20438;-65
2022/10/23 03:41:52;;;;;;;8.38;3.70;;;13.10;97.80;;;;;;5086806;28;20417;-64
2022/10/23 03:44:19;;;;;;;4.10;3.30;;;13.10;97.70;;;;;;5073834;28;20429;-66
2022/10/23 03:46:46;;;;;;;6.32;3.30;;;13.10;97.60;;;;;;5083660;28;20442;-65
2022/10/23 03:49:13;;;;;;;5.35;3.00;;;13.10;97.70;;;;;;5097946;28;20430;-63
2022/10/23 03:51:40;;;;;;;6.05;3.63;;;13.10;97.80;;;;;;5094482;28;20433;-65
2022/10/23 03:54:09;;;;;;;5.93;3.50;;;13.10;97.90;;;;;;5090336;28;20463;-64
2022/10/23 03:56:36;;;;;;;6.40;3.80;;;13.10;98.00;;;;;;5089962;28;20426;-64
2022/10/23 03:59:02;;;;;;;5.13;3.50;;;13.10;98.00;;;;;;5089386;28;20424;-64
2022/10/23 04:01:29;;;;;;;5.73;3.60;;;13.10;98.00;;;;;;5090399;28;20516;-64
2022/10/23 04:03:56;;;;;;;11.90;3.40;;;13.10;98.10;;;;;;5083811;28;20415;-62
2022/10/23 04:06:22;;;;;;;6.50;3.80;;;13.10;98.20;;;;;;5091583;28;20501;-65
2022/10/23 04:08:49;;;;;;;5.07;3.20;;;13.10;98.20;;;;;;5086370;28;20831;-63
2022/10/23 04:11:17;;;;;;;5.57;3.38;;;13.10;98.20;;;;;;5087535;28;20425;-64
2022/10/23 04:13:44;;;;;;;4.97;3.20;;;13.10;98.30;;;;;;5084484;28;20434;-66
2022/10/23 04:16:11;;;;;;;7.78;4.05;;;13.10;98.30;;;;;;5086909;28;20942;-64
2022/10/23 04:18:39;;;;;;;6.18;3.70;;;13.10;98.30;;;;;;5084783;28;20430;-63
2022/10/23 04:21:06;;;;;;;5.30;3.23;;;13.10;98.20;;;;;;5086361;28;20428;-65
2022/10/23 04:23:33;;;;;;;7.80;3.30;;;13.10;98.10;;;;;;5080938;28;20430;-65
2022/10/23 04:25:59;;;;;;;5.40;3.23;;;13.10;98.00;;;;;;5086647;28;21012;-64
2022/10/23 04:28:28;;;;;;;6.90;3.50;;;13.10;97.90;;;;;;5086834;28;20433;-64
2022/10/23 04:30:55;;;;;;;5.25;3.10;;;13.10;97.80;;;;;;5078463;28;20440;-64
2022/10/23 04:33:21;;;;;;;5.57;3.20;;;13.10;97.50;;;;;;5084613;28;20426;-64
2022/10/23 04:35:48;;;;;;;6.80;3.50;;;13.10;97.40;;;;;;5084276;28;20430;-65
2022/10/23 04:38:15;;;;;;;5.28;3.38;;;13.10;97.40;;;;;;5086753;28;20437;-64
2022/10/23 04:40:42;;;;;;;5.07;3.60;;;13.10;97.40;;;;;;5086898;28;20453;-65
2022/10/23 04:43:08;;;;;;;5.35;3.10;;;13.10;97.40;;;;;;5077938;28;20426;-64
2022/10/23 04:45:36;;;;;;;7.78;3.28;;;13.10;97.50;;;;;;5080436;28;20431;-64
2022/10/23 04:48:03;;;;;;;4.22;3.40;;;13.10;97.50;;;;;;5082472;28;20435;-65
2022/10/23 04:50:30;;;;;;;6.70;3.30;;;13.10;97.60;;;;;;5088150;28;20499;-64
2022/10/23 04:52:58;;;;;;;5.05;3.33;;;13.10;97.70;;;;;;5087412;28;20432;-65
2022/10/23 04:55:25;;;;;;;6.97;3.00;;;13.10;97.70;;;;;;5085702;28;20795;-65
2022/10/23 04:57:51;;;;;;;8.02;3.58;;;13.10;97.60;;;;;;5088319;28;20487;-65
2022/10/23 05:00:19;;;;;;;4.80;3.00;;;13.10;97.60;;;;;;5083602;28;20433;-65
2022/10/23 05:02:48;;;;;;;5.82;2.90;;;13.10;97.60;;;;;;5087891;28;20422;-65
2022/10/23 05:05:15;;;;;;;5.07;2.75;;;13.10;97.60;;;;;;5081681;28;20430;-65
2022/10/23 05:07:42;;;;;;;6.13;3.30;;;13.20;97.30;;;;;;5088555;28;20464;-64
2022/10/23 05:10:09;;;;;;;6.07;3.25;;;13.20;97.30;;;;;;5086563;28;20433;-64
2022/10/23 05:12:36;;;;;;;4.90;2.75;;;13.20;97.20;;;;;;5081979;28;20424;-65
2022/10/23 05:15:02;;;;;;;4.93;2.70;;;13.20;97.10;;;;;;5086689;28;20429;-66
2022/10/23 05:17:34;;;;;;;7.00;2.97;;;13.20;97.00;;;;;;5088153;28;20429;-65
2022/10/23 05:20:05;;;;;;;6.20;2.70;;;13.20;96.90;;;;;;5080560;28;20450;-64
2022/10/23 05:22:35;;;;;;;6.93;2.88;;;13.20;96.80;;;;;;5084546;28;20446;-65
2022/10/23 05:25:03;;;;;;;4.97;2.90;;;13.20;96.70;;;;;;5082401;28;20437;-66
2022/10/23 05:27:30;;;;;;;3.97;2.70;;;13.20;96.80;;;;;;5083974;28;21071;-65
2022/10/23 05:29:57;;;;;;;5.18;3.20;;;13.20;96.90;;;;;;5082787;28;20490;-67
2022/10/23 05:32:25;;;;;;;3.65;3.20;;;13.10;97.00;;;;;;5085725;28;20430;-65
2022/10/23 05:34:53;;;;;;;5.95;2.90;;;13.10;97.20;;;;;;5084291;28;20788;-65
2022/10/23 05:37:21;;;;;;;4.22;2.40;;;13.10;97.30;;;;;;5086137;28;20444;-65
2022/10/23 05:39:48;;;;;;;4.83;2.87;;;13.10;97.10;;;;;;5085627;28;20811;-65
2022/10/23 05:42:15;;;;;;;4.25;2.70;;;13.10;97.10;;;;;;5086399;28;20440;-66
2022/10/23 05:44:41;;;;;;;4.55;2.70;;;13.10;97.30;;;;;;5080399;28;20909;-65
2022/10/23 05:47:08;;;;;;;4.22;2.70;;;13.10;97.10;;;;;;5080715;28;20436;-65
2022/10/23 05:49:35;;;;;;;4.35;2.95;;;13.10;97.10;;;;;;5084400;28;20438;-64
2022/10/23 05:52:02;;;;;;;4.72;2.72;;;13.10;97.10;;;;;;5088894;28;20432;-63
2022/10/23 05:54:30;;;;;;;5.90;3.00;;;13.10;97.00;;;;;;5082851;28;20936;-62
2022/10/23 05:56:57;;;;;;;4.00;3.00;;;13.10;97.10;;;;;;5078132;28;20947;-64
2022/10/23 05:59:23;;;;;;;5.60;3.03;;;13.10;97.10;;;;;;5084478;28;20525;-63
2022/10/23 06:01:50;;;;;;;4.60;2.80;;;13.00;97.20;;;;;;5078155;28;20833;-65
2022/10/23 06:04:17;;;;;;;5.45;2.60;;;13.10;97.10;;;;;;5086380;28;20429;-64
2022/10/23 06:06:45;;;;;;;6.30;3.30;;;13.10;96.90;;;;;;5086607;28;20441;-64
2022/10/23 06:09:12;;;;;;;7.75;3.10;;;13.10;96.80;;;;;;5074413;28;20441;-64
2022/10/23 06:11:40;;;;;;;3.97;2.72;;;13.10;96.70;;;;;;5087738;28;20433;-64
2022/10/23 06:14:07;;;;;;;4.10;2.60;;;13.10;96.70;;;;;;5084999;28;20521;-65
2022/10/23 06:16:34;;;;;;;3.60;2.53;;;13.10;96.70;;;;;;5084899;28;20430;-65
2022/10/23 06:19:00;;;;;;;6.00;3.33;;;13.10;96.60;;;;;;5085574;28;20444;-64
2022/10/23 06:21:27;;;;;;;5.80;2.80;;;13.10;96.80;;;;;;5087542;28;20946;-65
2022/10/23 06:23:55;;;;;;;5.90;2.80;;;13.10;96.70;;;;;;5091377;28;20440;-65
2022/10/23 06:26:22;;;;;;;5.40;3.10;;;13.10;96.60;;;;;;5090502;28;20425;-64
2022/10/23 06:28:50;;;;;;;6.03;3.10;;;13.10;96.70;;;;;;5088439;28;20431;-64
2022/10/23 06:31:19;;;;;;;3.90;3.30;;;13.10;96.70;;;;;;5084683;28;20421;-65
2022/10/23 06:33:46;;;;;;;4.80;2.60;;;13.10;96.60;;;;;;5082002;28;20514;-65
2022/10/23 06:36:13;;;;;;;3.45;2.50;;;13.10;96.60;;;;;;5080933;28;20828;-65
2022/10/23 06:38:40;;;;;;;3.58;2.63;;;13.20;96.50;;;;;;5084284;28;20824;-65
2022/10/23 06:41:11;;;;;;;5.75;3.30;;;13.20;96.30;;;;;;5084144;28;20438;-64
2022/10/23 06:43:38;;;;;;;5.60;3.10;;;13.20;96.30;;;;;;5085289;28;20516;-65
2022/10/23 06:46:06;;;;;;;5.00;2.70;;;13.20;96.20;;;;;;5079615;28;20454;-65
2022/10/23 06:48:33;;;;;;;5.85;2.90;;;13.20;96.00;;;;;;5084090;28;20440;-64
2022/10/23 06:51:04;;;;;;;6.63;2.80;;;13.30;95.90;;;;;;5080926;28;20443;-63
2022/10/23 06:53:30;;;;;;;4.57;2.60;;;13.30;95.70;;;;;;5080616;28;20425;-65
2022/10/23 06:56:00;;;;;;;5.20;2.60;;;13.40;95.40;;;;;;5082678;28;20440;-64
2022/10/23 06:58:27;;;;;;;5.55;2.80;;;13.40;95.30;;;;;;5085236;28;20491;-64
2022/10/23 07:00:53;;;;;;;3.80;2.80;;;13.40;95.20;;;;;;5082914;28;20436;-62
2022/10/23 07:03:22;;;;;;;6.72;2.83;;;13.50;95.20;;;;;;5083717;28;20438;-68
2022/10/23 07:05:48;;;;;;;5.03;2.63;;;13.50;95.20;;;;;;5084985;28;20808;-67
2022/10/23 07:08:16;;;;;;;5.55;2.85;;;13.50;95.10;;;;;;5082646;28;20440;-67
2022/10/23 07:10:43;;;;;;;3.85;2.60;;;13.50;95.00;;;;;;5079254;28;21007;-67
2022/10/23 07:13:10;;;;;;;4.53;2.90;;;13.60;94.90;;;;;;5082941;28;20433;-67
2022/10/23 07:15:37;;;;;;;6.80;2.50;;;13.60;94.70;;;;;;5083745;28;20438;-67
2022/10/23 07:18:04;;;;;;;4.80;2.40;;;13.60;94.60;;;;;;5081607;28;20426;-68
2022/10/23 07:20:32;;;;;;;3.55;2.30;;;13.70;94.50;;;;;;5081531;28;20425;-66
2022/10/23 07:22:59;;;;;;;5.73;2.93;;;13.70;94.50;;;;;;5083931;28;20499;-66
2022/10/23 07:25:27;;;;;;;5.43;2.70;;;13.70;94.30;;;;;;5085712;28;20454;-69
2022/10/23 07:27:55;;;;;;;5.18;2.35;;;13.80;94.00;;;;;;5084748;28;20425;-70
2022/10/23 07:30:23;;;;;;;4.10;2.30;;;13.80;93.80;;;;;;5083716;28;20434;-68
2022/10/23 07:32:50;;;;;;;4.82;2.30;;;13.90;93.60;;;;;;5086296;28;20549;-68
2022/10/23 07:35:17;;;;;;;4.70;2.42;;;13.90;93.50;;;;;;5080443;28;20429;-69
2022/10/23 07:37:45;;;;;;;4.32;2.65;;;14.00;93.40;;;;;;5084824;28;20425;-69
2022/10/23 07:40:12;;;;;;;5.50;2.60;;;14.00;93.10;;;;;;5083343;28;20444;-71
2022/10/23 07:42:39;;;;;;;4.60;2.50;;;14.10;93.00;;;;;;5083460;28;20447;-67
2022/10/23 07:45:07;;;;;;;5.32;2.30;;;14.20;92.70;;;;;;5080396;28;20426;-70
2022/10/23 07:47:34;;;;;;;3.90;2.63;;;14.20;92.40;;;;;;5083340;28;20468;-68
2022/10/23 07:50:02;;;;;;;5.05;2.58;;;14.20;92.30;;;;;;5083005;28;20430;-67
2022/10/23 07:52:29;;;;;;;3.38;2.70;;;14.30;92.40;;;;;;5081805;28;20426;-67
2022/10/23 07:54:57;;;;;;;4.20;2.60;;;14.30;92.10;;;;;;5084057;28;20422;-67
2022/10/23 07:57:23;;;;;;;2.85;2.30;;;14.30;92.20;;;;;;5082562;28;20436;-66
2022/10/23 07:59:50;;;;;;;4.20;2.45;;;14.40;92.00;;;;;;5082187;28;20807;-68
2022/10/23 08:02:17;;;;;;;5.97;2.60;;;14.30;91.90;;;;;;5084125;28;20436;-68
2022/10/23 08:04:44;;;;;;;4.80;2.30;;;14.40;92.00;;;;;;5080498;28;20418;-66
2022/10/23 08:07:11;;;;;;;3.70;2.50;;;14.40;91.80;;;;;;5083985;28;20433;-65
2022/10/23 08:09:38;;;;;;;4.70;2.42;;;14.50;91.50;;;;;;5082938;28;20425;-64
2022/10/23 08:12:06;;;;;;;4.53;2.20;;;14.50;91.50;;;;;;5084194;28;20930;-65
2022/10/23 08:14:33;;;;;;;3.90;2.20;;;14.60;91.50;;;;;;5083561;28;20444;-67
2022/10/23 08:17:00;;;;;;;4.47;2.50;;;14.80;90.90;;;;;;5085993;28;20441;-66
2022/10/23 08:19:26;;;;;;;5.43;2.53;;;15.00;90.50;;;;;;5086120;28;20429;-67
2022/10/23 08:21:56;;;;;;;2.63;2.10;;;15.00;90.10;;;;;;5086464;28;20947;-67
2022/10/23 08:24:23;;;;;;;4.30;2.40;;;15.10;89.60;;;;;;5087272;28;20426;-66
2022/10/23 08:26:50;;;;;;;3.38;1.80;;;15.10;89.20;;;;;;5085830;28;20819;-66
2022/10/23 08:29:18;;;;;;;4.72;2.40;;;15.10;88.80;;;;;;5086955;28;20433;-67
2022/10/23 08:31:45;;;;;;;3.20;2.53;;;15.20;88.90;;;;;;5084028;28;20435;-68
2022/10/23 08:34:12;;;;;;;4.32;2.50;;;15.20;88.20;;;;;;5087335;28;20448;-67
2022/10/23 08:36:39;;;;;;;3.20;2.10;;;15.20;88.40;;;;;;5082764;28;20433;-67
2022/10/23 08:39:07;;;;;;;4.57;2.25;;;15.30;88.30;;;;;;5086114;28;20441;-67
2022/10/23 08:41:36;;;;;;;3.80;2.30;;;15.30;87.80;;;;;;5085202;28;20522;-68
2022/10/23 08:44:09;;;;;;;4.55;2.42;;;15.30;87.50;;;;;;5091088;28;20495;-67
2022/10/23 08:46:44;;;;;;;3.97;2.20;;;15.40;87.50;;;;;;5088993;28;20424;-68
2022/10/23 08:49:23;;;;;;;5.40;2.70;;;15.40;87.60;;;;;;5088972;28;20769;-68
2022/10/23 08:51:53;;;;;;;4.28;2.40;;;15.50;87.20;;;;;;5083894;28;20441;-66
2022/10/23 08:54:24;;;;;;;3.10;2.10;;;15.70;86.60;;;;;;5085538;28;20455;-70
2022/10/23 08:56:54;;;;;;;4.60;2.28;;;16.00;85.80;;;;;;5085907;28;20433;-67
2022/10/23 08:59:27;;;;;;;3.60;2.00;;;16.20;84.10;;;;;;5086943;28;20426;-62
2022/10/23 09:02:00;;;;;;;3.80;2.10;;;16.40;83.30;;;;;;5085032;28;20437;-61
2022/10/23 09:04:27;;;;;;;5.60;2.35;;;16.60;82.50;;;;;;5086367;28;20418;-61
2022/10/23 09:07:01;;;;;;;2.95;2.00;;;16.80;82.00;;;;;;5084769;28;20678;-61
2022/10/23 09:09:53;;;;;;;3.85;2.10;;;17.00;80.60;;;;;;5087984;28;20425;-61
2022/10/23 09:12:23;;;;;;;3.83;2.20;;;17.10;79.60;;;;;;5077683;28;20954;-61
2022/10/23 09:15:07;;;;;;;2.90;2.00;;;17.30;79.20;;;;;;5083710;28;20436;-61
2022/10/23 09:17:39;;;;;;;2.70;1.98;;;17.40;78.30;;;;;;5081911;28;20930;-60
2022/10/23 09:20:16;;;;;;;3.45;2.17;;;17.50;78.00;;;;;;5077228;28;20567;-60
2022/10/23 09:22:44;;;;;;;3.63;2.25;;;17.70;76.90;;;;;;5085401;28;21040;-61
2022/10/23 09:25:15;;;;;;;3.60;1.90;;;17.70;76.30;;;;;;5082155;28;20433;-67
2022/10/23 09:27:47;;;;;;;3.30;1.90;;;17.70;76.90;;;;;;5086601;28;20426;-69
2022/10/23 09:30:25;;;;;;;2.80;2.00;;;17.80;76.70;;;;;;5076661;28;20437;-67
2022/10/23 09:32:54;;;;;;;3.05;1.65;;;17.90;76.00;;;;;;5076032;28;20426;-68
2022/10/23 09:35:22;;;;;;;2.70;1.80;;;17.80;76.10;;;;;;5079457;28;20425;-69
2022/10/23 09:37:52;;;;;;;3.55;1.80;;;17.80;75.80;;;;;;5084844;28;20481;-68
2022/10/23 09:40:24;;;;;;;4.10;2.22;;;17.90;75.90;;;;;;5086378;28;20494;-67
2022/10/23 09:42:54;;;;;;;4.00;2.00;;;17.90;75.20;;;;;;5082308;28;21231;-67
2022/10/23 09:45:27;;;;;;;5.10;3.10;;;18.00;75.30;;;;;;5080669;28;20534;-68
2022/10/23 09:48:06;;;;;;;5.28;2.90;;;18.00;75.20;;;;;;5085536;28;20425;-67
2022/10/23 09:50:33;;;;;;;3.17;2.05;;;18.10;75.30;;;;;;5083712;28;20935;-67
2022/10/23 09:53:01;;;;;;;4.97;1.70;;;18.10;74.90;;;;;;5083890;28;20425;-70
2022/10/23 09:55:28;;;;;;;4.03;1.80;;;18.10;75.10;;;;;;5086033;28;20433;-67
2022/10/23 09:57:55;;;;;;;1.90;1.70;;;18.10;75.60;;;;;;5084624;28;20916;-67
2022/10/23 10:00:24;;;;;;;4.75;2.20;;;18.00;75.50;;;;;;5083571;28;20432;-68
2022/10/23 10:03:00;;;;;;;3.60;2.30;;;17.90;76.20;;;;;;5083240;28;20513;-68
2022/10/23 10:05:30;;;;;;;3.13;1.95;;;17.90;76.40;;;;;;5081620;28;20824;-67
2022/10/23 10:08:03;;;;;;;2.35;1.73;;;17.80;76.90;;;;;;5079916;28;20425;-67
2022/10/23 10:10:37;;;;;;;3.20;1.70;;;17.90;77.10;;;;;;5085820;28;20414;-67
2022/10/23 10:13:14;;;;;;;3.28;1.80;;;17.90;76.70;;;;;;5080072;28;20923;-69
2022/10/23 10:15:47;;;;;;;2.20;1.90;;;17.90;77.10;;;;;;5084684;28;20426;-68
2022/10/23 10:18:20;;;;;;;4.53;2.00;;;18.00;77.40;;;;;;5084159;28;20448;-62
2022/10/23 10:21:01;;;;;;;1.90;1.70;;;18.00;77.40;;;;;;5082304;28;20424;-62
2022/10/23 10:23:37;;;;;;;2.50;1.70;;;17.90;77.50;;;;;;5080976;28;20433;-63
2022/10/23 10:26:15;;;;;;;3.65;1.67;;;17.90;77.70;;;;;;5081066;28;20424;-63
2022/10/23 10:28:53;;;;;;;2.92;1.63;;;17.80;77.50;;;;;;5083016;28;20453;-65
2022/10/23 10:31:26;;;;;;;5.20;2.22;;;17.90;77.80;;;;;;5083718;28;20441;-63
2022/10/23 10:34:04;;;;;;;3.70;1.50;;;17.80;77.80;;;;;;5084568;28;20418;-62
2022/10/23 10:36:47;;;;;;;2.50;1.63;;;17.90;77.30;;;;;;5082182;28;20521;-62
2022/10/23 10:39:24;;;;;;;2.55;1.60;;;17.90;77.30;;;;;;5081899;28;20454;-64
2022/10/23 10:42:12;;;;;;;2.58;1.70;;;17.90;76.80;;;;;;5083352;28;21294;-63
2022/10/23 10:44:57;;;;;;;3.10;1.70;;;17.80;76.00;;;;;;5084429;28;20950;-62
2022/10/23 10:47:33;;;;;;;2.03;1.42;;;17.80;75.60;;;;;;5082125;28;20440;-62
2022/10/23 10:50:08;;;;;;;2.65;1.52;;;17.70;76.00;;;;;;5082904;28;20472;-62
2022/10/23 10:52:45;;;;;;;5.75;1.73;;;17.70;76.50;;;;;;5081176;28;20457;-61
2022/10/23 10:55:18;;;;;;;2.78;1.50;;;17.70;76.00;;;;;;5082461;28;20432;-64
2022/10/23 10:57:50;;;;;;;3.40;1.57;;;17.80;76.00;;;;;;5082702;28;20527;-64
2022/10/23 11:00:19;;;;;;;3.83;1.70;;;17.80;75.70;;;;;;5078865;28;20425;-66
2022/10/23 11:02:49;;;;;;;3.20;1.60;;;17.70;76.00;;;;;;5082650;28;20429;-64
2022/10/23 11:05:27;;;;;;;1.67;1.58;;;17.70;76.40;;;;;;5077277;28;20436;-63
2022/10/23 11:08:02;;;;;;;2.42;2.05;;;17.70;77.30;;;;;;5083404;28;20425;-64
2022/10/23 11:10:29;;;;;;;3.30;1.60;;;17.80;77.60;;;;;;5083277;28;20434;-62
2022/10/23 11:12:57;;;;;;;3.10;1.70;;;17.80;76.60;;;;;;5084246;28;20430;-62
2022/10/23 11:15:28;;;;;;;3.83;1.88;;;17.80;77.10;;;;;;5081286;28;20431;-67
2022/10/23 11:17:59;;;;;;;3.20;2.00;;;17.80;77.10;;;;;;5084799;28;20429;-62
2022/10/23 11:20:51;;;;;;;3.10;1.70;;;17.80;77.10;;;;;;5082687;28;20432;-64
2022/10/23 11:23:53;;;;;;;5.78;2.10;;;17.70;78.10;;;;;;5084150;28;20433;-62
2022/10/23 11:26:39;;;;;;;3.97;2.10;;;17.60;78.40;;;;;;5085445;28;20512;-66
2022/10/23 11:29:32;;;;;;;3.40;1.80;;;17.50;80.40;;;;;;5085258;28;21087;-67
2022/10/23 11:32:21;;;;;;;4.50;1.60;;;17.40;81.90;;;;;;5084356;28;20796;-65
2022/10/23 11:35:04;;;;;;;3.78;1.70;;;17.30;81.30;;;;;;5081788;28;20426;-67
2022/10/23 11:37:31;;;;;;;4.13;1.80;;;17.20;81.90;;;;;;5083516;28;20935;-66
2022/10/23 11:40:03;;;;;;;3.00;1.70;;;17.20;81.50;;;;;;5085759;28;20418;-66
2022/10/23 11:42:33;;;;;;;2.60;1.90;;;17.20;81.70;;;;;;5086001;28;20476;-66
2022/10/23 11:45:00;;;;;;;3.80;1.50;;;17.20;81.30;;;;;;5089386;28;20422;-67
2022/10/23 11:47:34;;;;;;;3.70;1.98;;;17.20;80.70;;;;;;5087299;28;20506;-67
2022/10/23 11:50:25;;;;;;;3.08;1.90;;;17.30;81.10;;;;;;5085928;28;20421;-67
2022/10/23 11:52:56;;;;;;;3.30;2.00;;;17.50;80.30;;;;;;5086661;28;20433;-67
2022/10/23 11:55:26;;;;;;;4.47;1.70;;;17.70;79.20;;;;;;5089444;28;20804;-66
2022/10/23 11:58:18;;;;;;;3.70;1.80;;;17.80;78.00;;;;;;5086651;28;20429;-68
2022/10/23 12:00:54;;;;;;;2.70;1.70;;;18.00;77.80;;;;;;5084885;28;20429;-68
2022/10/23 12:03:24;;;;;;;4.63;1.90;;;18.30;76.60;;;;;;5083629;28;20430;-66
2022/10/23 12:05:59;;;;;;;6.28;2.10;;;18.40;75.40;;;;;;5087283;28;20418;-67
2022/10/23 12:08:28;;;;;;;3.30;1.83;;;18.60;74.80;;;;;;5087581;28;20521;-67
2022/10/23 12:10:56;;;;;;;3.30;1.60;;;18.70;74.60;;;;;;5108084;22;20437;-76
2022/10/23 12:13:45;;;;;;;3.17;1.40;;;18.80;73.40;;;;;;5082464;28;20422;-75
2022/10/23 12:16:13;;;;;;;4.00;1.80;;;18.90;73.00;;;;;;5081299;28;20441;-76
2022/10/23 12:18:48;;;;;;;2.70;1.80;;;19.00;73.00;;;;;;5084730;28;20510;-77
2022/10/23 12:21:19;;;;;;;3.17;1.70;;;19.10;71.70;;;;;;5082253;28;20861;-78
2022/10/23 12:24:02;;;;;;;3.65;1.67;;;19.10;72.50;;;;;;5085087;28;20422;-77
2022/10/23 12:26:47;;;;;;;3.35;1.60;;;19.20;72.40;;;;;;5085123;28;20485;-78
2022/10/23 12:29:28;;;;;;;2.70;1.90;;;19.20;71.60;;;;;;5082574;28;20886;-77
2022/10/23 12:32:02;;;;;;;3.75;2.08;;;19.20;70.80;;;;;;5081475;28;20934;-77
2022/10/23 12:34:42;;;;;;;3.60;1.90;;;19.20;71.50;;;;;;5082450;28;20964;-77
2022/10/23 12:37:27;;;;;;;4.75;1.85;;;19.20;71.90;;;;;;5084874;28;20426;-76
2022/10/23 12:39:56;;;;;;;3.72;1.90;;;19.10;71.50;;;;;;5084310;28;20437;-76
2022/10/23 12:42:26;;;;;;;4.78;1.63;;;19.00;72.10;;;;;;5083544;28;20421;-76
2022/10/23 12:45:00;;;;;;;2.70;1.90;;;18.90;72.30;;;;;;5085938;28;20409;-76
2022/10/23 12:47:28;;;;;;;3.50;2.20;;;18.80;73.00;;;;;;5082995;28;20430;-76
2022/10/23 12:49:55;;;;;;;3.45;1.70;;;18.80;72.70;;;;;;5086720;28;20410;-76
2022/10/23 12:52:23;;;;;;;2.90;1.60;;;18.70;72.90;;;;;;5082220;28;20935;-76
2022/10/23 12:54:50;;;;;;;3.40;2.00;;;18.60;73.60;;;;;;5085665;28;20906;-77
2022/10/23 12:57:21;;;;;;;4.65;2.10;;;18.70;73.80;;;;;;5083585;28;20838;-77
2022/10/23 12:59:52;;;;;;;4.43;1.88;;;18.60;73.90;;;;;;5083753;28;20491;-77
2022/10/23 13:02:24;;;;;;;4.43;2.00;;;18.50;74.50;;;;;;5082363;28;20426;-77